sensor_id;sensor_type;location;lat;lon;timestamp;temperature;humidity
3226;DHT22;1625;49.884;8.666;2022-08-16T00:01:42;21.70;99.90
3226;DHT22;1625;49.884;8.666;2022-08-16T00:04:08;21.70;99.90
3226;DHT22;1625;49.884;8.666;2022-08-16T00:06:34;21.60;99.90
3226;DHT22;1625;49.884;8.666;2022-08-16T00:08:59;21.50;99.90
3226;DHT22;1625;49.884;8.666;2022-08-16T00:11:25;21.50;99.90
3226;DHT22;1625;49.884;8.666;2022-08-16T00:13:51;21.50;99.90
3226;DHT22;1625;49.884;8.666;2022-08-16T00:16:16;21.50;99.90
3226;DHT22;1625;49.884;8.666;2022-08-16T00:18:42;21.50;99.90
3226;DHT22;1625;49.884;8.666;2022-08-16T00:21:07;21.40;99.90
3226;DHT22;1625;49.884;8.666;2022-08-16T00:23:33;21.40;99.90
3226;DHT22;1625;49.884;8.666;2022-08-16T00:25:59;21.40;99.90
3226;DHT22;1625;49.884;8.666;2022-08-16T00:28:24;21.40;99.90
3226;DHT22;1625;49.884;8.666;2022-08-16T00:30:50;21.40;99.90
3226;DHT22;1625;49.884;8.666;2022-08-16T00:33:16;21.40;99.90
3226;DHT22;1625;49.884;8.666;2022-08-16T00:35:41;21.30;99.90
3226;DHT22;1625;49.884;8.666;2022-08-16T00:38:07;21.40;99.90
3226;DHT22;1625;49.884;8.666;2022-08-16T00:40:44;21.40;99.90
3226;DHT22;1625;49.884;8.666;2022-08-16T00:43:14;21.40;99.90
3226;DHT22;1625;49.884;8.666;2022-08-16T00:48:30;21.30;99.90
3226;DHT22;1625;49.884;8.666;2022-08-16T00:50:56;21.30;99.90
3226;DHT22;1625;49.884;8.666;2022-08-16T00:53:22;21.30;99.90
3226;DHT22;1625;49.884;8.666;2022-08-16T00:55:53;21.30;99.90
3226;DHT22;1625;49.884;8.666;2022-08-16T00:58:26;21.20;99.90
3226;DHT22;1625;49.884;8.666;2022-08-16T01:00:53;21.20;99.90
3226;DHT22;1625;49.884;8.666;2022-08-16T01:03:21;21.20;99.90
3226;DHT22;1625;49.884;8.666;2022-08-16T01:05:47;21.20;99.90
3226;DHT22;1625;49.884;8.666;2022-08-16T01:08:15;21.10;99.90
3226;DHT22;1625;49.884;8.666;2022-08-16T01:10:43;21.10;99.90
3226;DHT22;1625;49.884;8.666;2022-08-16T01:13:12;21.10;99.90
3226;DHT22;1625;49.884;8.666;2022-08-16T01:15:46;21.10;99.90
3226;DHT22;1625;49.884;8.666;2022-08-16T01:18:17;21.10;99.90
3226;DHT22;1625;49.884;8.666;2022-08-16T01:20:50;21.00;99.90
3226;DHT22;1625;49.884;8.666;2022-08-16T01:26:19;21.10;99.90
3226;DHT22;1625;49.884;8.666;2022-08-16T01:28:46;21.00;99.90
3226;DHT22;1625;49.884;8.666;2022-08-16T01:31:13;21.00;99.90
3226;DHT22;1625;49.884;8.666;2022-08-16T01:33:40;21.00;99.90
3226;DHT22;1625;49.884;8.666;2022-08-16T01:36:07;21.00;99.90
3226;DHT22;1625;49.884;8.666;2022-08-16T01:38:36;20.90;99.90
3226;DHT22;1625;49.884;8.666;2022-08-16T01:41:09;20.90;99.90
3226;DHT22;1625;49.884;8.666;2022-08-16T01:43:38;20.90;99.90
3226;DHT22;1625;49.884;8.666;2022-08-16T01:46:07;20.90;99.90
3226;DHT22;1625;49.884;8.666;2022-08-16T01:48:33;20.90;99.90
3226;DHT22;1625;49.884;8.666;2022-08-16T01:51:01;20.90;99.90
3226;DHT22;1625;49.884;8.666;2022-08-16T01:53:27;20.80;99.90
3226;DHT22;1625;49.884;8.666;2022-08-16T01:55:53;20.80;99.90
3226;DHT22;1625;49.884;8.666;2022-08-16T01:58:20;20.80;99.90
3226;DHT22;1625;49.884;8.666;2022-08-16T02:00:47;20.80;99.90
3226;DHT22;1625;49.884;8.666;2022-08-16T02:03:13;20.80;99.90
3226;DHT22;1625;49.884;8.666;2022-08-16T02:05:40;20.80;99.90
3226;DHT22;1625;49.884;8.666;2022-08-16T02:08:06;20.80;99.90
3226;DHT22;1625;49.884;8.666;2022-08-16T02:10:32;20.80;99.90
3226;DHT22;1625;49.884;8.666;2022-08-16T02:12:58;20.80;99.90
3226;DHT22;1625;49.884;8.666;2022-08-16T02:15:26;20.70;99.90
3226;DHT22;1625;49.884;8.666;2022-08-16T02:17:53;20.80;99.90
3226;DHT22;1625;49.884;8.666;2022-08-16T02:20:19;20.80;99.90
3226;DHT22;1625;49.884;8.666;2022-08-16T02:22:45;20.80;99.90
3226;DHT22;1625;49.884;8.666;2022-08-16T02:25:13;20.70;99.90
3226;DHT22;1625;49.884;8.666;2022-08-16T02:27:40;20.70;99.90
3226;DHT22;1625;49.884;8.666;2022-08-16T02:30:09;20.70;99.90
3226;DHT22;1625;49.884;8.666;2022-08-16T02:32:40;20.70;99.90
3226;DHT22;1625;49.884;8.666;2022-08-16T02:35:05;20.70;99.90
3226;DHT22;1625;49.884;8.666;2022-08-16T02:37:31;20.70;99.90
3226;DHT22;1625;49.884;8.666;2022-08-16T02:39:57;20.60;99.90
3226;DHT22;1625;49.884;8.666;2022-08-16T02:42:22;20.60;99.90
3226;DHT22;1625;49.884;8.666;2022-08-16T02:44:48;20.60;99.90
3226;DHT22;1625;49.884;8.666;2022-08-16T02:47:13;20.60;99.90
3226;DHT22;1625;49.884;8.666;2022-08-16T02:49:39;20.50;99.90
3226;DHT22;1625;49.884;8.666;2022-08-16T02:52:04;20.60;99.90
3226;DHT22;1625;49.884;8.666;2022-08-16T02:54:31;20.50;99.90
3226;DHT22;1625;49.884;8.666;2022-08-16T02:56:57;20.50;99.90
3226;DHT22;1625;49.884;8.666;2022-08-16T02:59:22;20.50;99.90
3226;DHT22;1625;49.884;8.666;2022-08-16T03:01:48;20.50;99.90
3226;DHT22;1625;49.884;8.666;2022-08-16T03:04:14;20.50;99.90
3226;DHT22;1625;49.884;8.666;2022-08-16T03:06:40;20.50;99.90
3226;DHT22;1625;49.884;8.666;2022-08-16T03:09:06;20.40;99.90
3226;DHT22;1625;49.884;8.666;2022-08-16T03:11:32;20.40;99.90
3226;DHT22;1625;49.884;8.666;2022-08-16T03:13:58;20.40;99.90
3226;DHT22;1625;49.884;8.666;2022-08-16T03:16:24;20.40;99.90
3226;DHT22;1625;49.884;8.666;2022-08-16T03:18:50;20.40;99.90
3226;DHT22;1625;49.884;8.666;2022-08-16T03:21:16;20.40;99.90
3226;DHT22;1625;49.884;8.666;2022-08-16T03:23:42;20.40;99.90
3226;DHT22;1625;49.884;8.666;2022-08-16T03:26:07;20.40;99.90
3226;DHT22;1625;49.884;8.666;2022-08-16T03:28:33;20.40;99.90
3226;DHT22;1625;49.884;8.666;2022-08-16T03:30:59;20.30;99.90
3226;DHT22;1625;49.884;8.666;2022-08-16T03:33:24;20.30;99.90
3226;DHT22;1625;49.884;8.666;2022-08-16T03:35:51;20.30;99.90
3226;DHT22;1625;49.884;8.666;2022-08-16T03:38:17;20.20;99.90
3226;DHT22;1625;49.884;8.666;2022-08-16T03:40:43;20.20;99.90
3226;DHT22;1625;49.884;8.666;2022-08-16T03:43:10;20.20;99.90
3226;DHT22;1625;49.884;8.666;2022-08-16T03:45:39;20.20;99.90
3226;DHT22;1625;49.884;8.666;2022-08-16T03:48:06;20.10;99.90
3226;DHT22;1625;49.884;8.666;2022-08-16T03:50:31;20.10;99.90
3226;DHT22;1625;49.884;8.666;2022-08-16T03:52:57;20.10;99.90
3226;DHT22;1625;49.884;8.666;2022-08-16T03:55:23;20.10;99.90
3226;DHT22;1625;49.884;8.666;2022-08-16T03:57:49;20.00;99.90
3226;DHT22;1625;49.884;8.666;2022-08-16T04:00:20;19.90;99.90
3226;DHT22;1625;49.884;8.666;2022-08-16T04:02:46;19.90;99.90
3226;DHT22;1625;49.884;8.666;2022-08-16T04:05:13;19.90;99.90
3226;DHT22;1625;49.884;8.666;2022-08-16T04:07:39;19.80;99.90
3226;DHT22;1625;49.884;8.666;2022-08-16T04:10:06;19.80;99.90
3226;DHT22;1625;49.884;8.666;2022-08-16T04:12:33;19.70;99.90
3226;DHT22;1625;49.884;8.666;2022-08-16T04:14:59;19.70;99.90
3226;DHT22;1625;49.884;8.666;2022-08-16T04:17:26;19.70;99.90
3226;DHT22;1625;49.884;8.666;2022-08-16T04:19:52;19.60;99.90
3226;DHT22;1625;49.884;8.666;2022-08-16T04:22:17;19.60;99.90
3226;DHT22;1625;49.884;8.666;2022-08-16T04:24:44;19.50;99.90
3226;DHT22;1625;49.884;8.666;2022-08-16T04:27:10;19.50;99.90
3226;DHT22;1625;49.884;8.666;2022-08-16T04:29:35;19.40;99.90
3226;DHT22;1625;49.884;8.666;2022-08-16T04:32:01;19.40;99.90
3226;DHT22;1625;49.884;8.666;2022-08-16T04:34:30;19.40;99.90
3226;DHT22;1625;49.884;8.666;2022-08-16T04:36:57;19.30;99.90
3226;DHT22;1625;49.884;8.666;2022-08-16T04:39:24;19.30;99.90
3226;DHT22;1625;49.884;8.666;2022-08-16T04:41:50;19.30;99.90
3226;DHT22;1625;49.884;8.666;2022-08-16T04:44:16;19.20;99.90
3226;DHT22;1625;49.884;8.666;2022-08-16T04:46:42;19.20;99.90
3226;DHT22;1625;49.884;8.666;2022-08-16T04:49:08;19.20;99.90
3226;DHT22;1625;49.884;8.666;2022-08-16T04:51:35;19.10;99.90
3226;DHT22;1625;49.884;8.666;2022-08-16T04:54:00;19.10;99.90
3226;DHT22;1625;49.884;8.666;2022-08-16T04:56:26;19.10;99.90
3226;DHT22;1625;49.884;8.666;2022-08-16T04:58:51;19.10;99.90
3226;DHT22;1625;49.884;8.666;2022-08-16T05:01:17;19.10;99.90
3226;DHT22;1625;49.884;8.666;2022-08-16T05:03:43;19.10;99.90
3226;DHT22;1625;49.884;8.666;2022-08-16T05:06:09;19.20;99.90
3226;DHT22;1625;49.884;8.666;2022-08-16T05:08:35;19.20;99.90
3226;DHT22;1625;49.884;8.666;2022-08-16T05:11:03;19.10;99.90
3226;DHT22;1625;49.884;8.666;2022-08-16T05:13:30;19.20;99.90
3226;DHT22;1625;49.884;8.666;2022-08-16T05:15:56;19.20;99.90
3226;DHT22;1625;49.884;8.666;2022-08-16T05:18:21;19.30;99.90
3226;DHT22;1625;49.884;8.666;2022-08-16T05:20:47;19.30;99.90
3226;DHT22;1625;49.884;8.666;2022-08-16T05:23:12;19.30;99.90
3226;DHT22;1625;49.884;8.666;2022-08-16T05:25:38;19.30;99.90
3226;DHT22;1625;49.884;8.666;2022-08-16T05:28:04;19.30;99.90
3226;DHT22;1625;49.884;8.666;2022-08-16T05:30:30;19.30;99.90
3226;DHT22;1625;49.884;8.666;2022-08-16T05:32:55;19.50;99.90
3226;DHT22;1625;49.884;8.666;2022-08-16T05:35:21;19.50;99.90
3226;DHT22;1625;49.884;8.666;2022-08-16T05:37:46;19.60;99.90
3226;DHT22;1625;49.884;8.666;2022-08-16T05:40:13;19.60;99.90
3226;DHT22;1625;49.884;8.666;2022-08-16T05:42:39;19.70;99.90
3226;DHT22;1625;49.884;8.666;2022-08-16T05:45:05;19.90;99.90
3226;DHT22;1625;49.884;8.666;2022-08-16T05:47:31;19.80;99.90
3226;DHT22;1625;49.884;8.666;2022-08-16T05:49:57;19.90;99.90
3226;DHT22;1625;49.884;8.666;2022-08-16T05:52:23;20.00;99.90
3226;DHT22;1625;49.884;8.666;2022-08-16T05:54:48;20.10;99.90
3226;DHT22;1625;49.884;8.666;2022-08-16T05:57:16;20.10;99.90
3226;DHT22;1625;49.884;8.666;2022-08-16T05:59:42;20.20;99.90
3226;DHT22;1625;49.884;8.666;2022-08-16T06:02:07;20.20;99.90
3226;DHT22;1625;49.884;8.666;2022-08-16T06:04:33;20.20;99.90
3226;DHT22;1625;49.884;8.666;2022-08-16T06:06:58;20.30;99.90
3226;DHT22;1625;49.884;8.666;2022-08-16T06:09:25;20.30;99.90
3226;DHT22;1625;49.884;8.666;2022-08-16T06:11:51;20.30;99.90
3226;DHT22;1625;49.884;8.666;2022-08-16T06:14:17;20.40;99.90
3226;DHT22;1625;49.884;8.666;2022-08-16T06:16:42;20.30;99.90
3226;DHT22;1625;49.884;8.666;2022-08-16T06:19:08;20.40;99.90
3226;DHT22;1625;49.884;8.666;2022-08-16T06:21:34;20.50;99.90
3226;DHT22;1625;49.884;8.666;2022-08-16T06:23:59;20.50;99.90
3226;DHT22;1625;49.884;8.666;2022-08-16T06:26:25;20.60;99.90
3226;DHT22;1625;49.884;8.666;2022-08-16T06:28:50;20.60;99.90
3226;DHT22;1625;49.884;8.666;2022-08-16T06:31:16;20.60;99.90
3226;DHT22;1625;49.884;8.666;2022-08-16T06:33:42;20.70;99.90
3226;DHT22;1625;49.884;8.666;2022-08-16T06:36:09;20.70;99.90
3226;DHT22;1625;49.884;8.666;2022-08-16T06:38:36;20.70;99.90
3226;DHT22;1625;49.884;8.666;2022-08-16T06:41:06;20.70;99.90
3226;DHT22;1625;49.884;8.666;2022-08-16T06:43:32;20.80;99.90
3226;DHT22;1625;49.884;8.666;2022-08-16T06:46:00;20.80;99.90
3226;DHT22;1625;49.884;8.666;2022-08-16T06:48:25;20.90;99.90
3226;DHT22;1625;49.884;8.666;2022-08-16T06:50:51;20.80;99.90
3226;DHT22;1625;49.884;8.666;2022-08-16T06:53:17;20.90;99.90
3226;DHT22;1625;49.884;8.666;2022-08-16T06:55:43;20.90;99.90
3226;DHT22;1625;49.884;8.666;2022-08-16T06:58:09;21.00;99.90
3226;DHT22;1625;49.884;8.666;2022-08-16T07:00:35;21.00;99.90
3226;DHT22;1625;49.884;8.666;2022-08-16T07:03:03;21.10;99.90
3226;DHT22;1625;49.884;8.666;2022-08-16T07:05:28;21.10;99.90
3226;DHT22;1625;49.884;8.666;2022-08-16T07:07:56;21.10;99.90
3226;DHT22;1625;49.884;8.666;2022-08-16T07:10:22;21.10;99.90
3226;DHT22;1625;49.884;8.666;2022-08-16T07:12:49;21.10;99.90
3226;DHT22;1625;49.884;8.666;2022-08-16T07:15:18;21.20;99.90
3226;DHT22;1625;49.884;8.666;2022-08-16T07:17:44;21.20;99.90
3226;DHT22;1625;49.884;8.666;2022-08-16T07:20:14;21.30;99.90
3226;DHT22;1625;49.884;8.666;2022-08-16T07:22:40;21.30;99.90
3226;DHT22;1625;49.884;8.666;2022-08-16T07:25:09;21.40;99.90
3226;DHT22;1625;49.884;8.666;2022-08-16T07:27:35;21.40;99.90
3226;DHT22;1625;49.884;8.666;2022-08-16T07:30:00;21.50;99.90
3226;DHT22;1625;49.884;8.666;2022-08-16T07:32:27;21.50;99.90
3226;DHT22;1625;49.884;8.666;2022-08-16T07:34:53;21.50;99.90
3226;DHT22;1625;49.884;8.666;2022-08-16T07:37:18;21.50;99.90
3226;DHT22;1625;49.884;8.666;2022-08-16T07:39:47;21.60;99.90
3226;DHT22;1625;49.884;8.666;2022-08-16T07:42:12;21.60;99.90
3226;DHT22;1625;49.884;8.666;2022-08-16T07:44:38;21.70;99.90
3226;DHT22;1625;49.884;8.666;2022-08-16T07:47:04;21.70;99.90
3226;DHT22;1625;49.884;8.666;2022-08-16T07:49:30;21.70;99.90
3226;DHT22;1625;49.884;8.666;2022-08-16T07:51:55;21.70;99.90
3226;DHT22;1625;49.884;8.666;2022-08-16T07:54:21;21.80;99.90
3226;DHT22;1625;49.884;8.666;2022-08-16T07:56:46;21.80;99.90
3226;DHT22;1625;49.884;8.666;2022-08-16T07:59:15;21.90;99.90
3226;DHT22;1625;49.884;8.666;2022-08-16T08:01:41;21.90;99.90
3226;DHT22;1625;49.884;8.666;2022-08-16T08:04:06;21.90;99.90
3226;DHT22;1625;49.884;8.666;2022-08-16T08:06:38;21.90;99.90
3226;DHT22;1625;49.884;8.666;2022-08-16T08:09:04;21.90;99.90
3226;DHT22;1625;49.884;8.666;2022-08-16T08:11:51;22.00;99.90
3226;DHT22;1625;49.884;8.666;2022-08-16T08:14:30;22.00;99.90
3226;DHT22;1625;49.884;8.666;2022-08-16T08:16:59;22.10;99.90
3226;DHT22;1625;49.884;8.666;2022-08-16T08:19:25;22.10;99.90
3226;DHT22;1625;49.884;8.666;2022-08-16T08:21:51;22.20;99.90
3226;DHT22;1625;49.884;8.666;2022-08-16T08:24:19;22.30;99.90
3226;DHT22;1625;49.884;8.666;2022-08-16T08:26:45;22.30;99.90
3226;DHT22;1625;49.884;8.666;2022-08-16T08:29:10;22.30;99.90
3226;DHT22;1625;49.884;8.666;2022-08-16T08:31:36;22.40;99.90
3226;DHT22;1625;49.884;8.666;2022-08-16T08:34:03;22.40;99.90
3226;DHT22;1625;49.884;8.666;2022-08-16T08:36:31;22.40;99.90
3226;DHT22;1625;49.884;8.666;2022-08-16T08:38:57;22.40;99.90
3226;DHT22;1625;49.884;8.666;2022-08-16T08:41:23;22.40;99.90
3226;DHT22;1625;49.884;8.666;2022-08-16T08:43:50;22.50;99.90
3226;DHT22;1625;49.884;8.666;2022-08-16T08:46:16;22.60;99.90
3226;DHT22;1625;49.884;8.666;2022-08-16T08:48:44;22.60;99.90
3226;DHT22;1625;49.884;8.666;2022-08-16T08:51:11;22.60;99.90
3226;DHT22;1625;49.884;8.666;2022-08-16T08:53:36;22.60;99.90
3226;DHT22;1625;49.884;8.666;2022-08-16T08:56:03;22.70;99.90
3226;DHT22;1625;49.884;8.666;2022-08-16T08:58:35;22.80;99.90
3226;DHT22;1625;49.884;8.666;2022-08-16T09:01:07;22.80;99.90
3226;DHT22;1625;49.884;8.666;2022-08-16T09:03:34;22.80;99.90
3226;DHT22;1625;49.884;8.666;2022-08-16T09:06:01;22.90;99.90
3226;DHT22;1625;49.884;8.666;2022-08-16T09:08:29;23.10;99.90
3226;DHT22;1625;49.884;8.666;2022-08-16T09:10:56;23.10;99.90
3226;DHT22;1625;49.884;8.666;2022-08-16T09:13:25;23.10;99.90
3226;DHT22;1625;49.884;8.666;2022-08-16T09:15:52;23.20;99.90
3226;DHT22;1625;49.884;8.666;2022-08-16T09:18:23;23.30;99.90
3226;DHT22;1625;49.884;8.666;2022-08-16T09:20:52;23.30;99.90
3226;DHT22;1625;49.884;8.666;2022-08-16T09:23:18;23.40;99.90
3226;DHT22;1625;49.884;8.666;2022-08-16T09:25:45;23.40;99.90
3226;DHT22;1625;49.884;8.666;2022-08-16T09:28:11;23.40;99.90
3226;DHT22;1625;49.884;8.666;2022-08-16T09:30:37;23.40;99.90
3226;DHT22;1625;49.884;8.666;2022-08-16T09:33:06;23.50;99.90
3226;DHT22;1625;49.884;8.666;2022-08-16T09:35:32;23.60;99.90
3226;DHT22;1625;49.884;8.666;2022-08-16T09:37:58;23.60;99.90
3226;DHT22;1625;49.884;8.666;2022-08-16T09:40:29;23.60;99.90
3226;DHT22;1625;49.884;8.666;2022-08-16T09:42:58;23.60;99.90
3226;DHT22;1625;49.884;8.666;2022-08-16T09:45:24;23.80;99.90
3226;DHT22;1625;49.884;8.666;2022-08-16T09:47:50;23.90;99.90
3226;DHT22;1625;49.884;8.666;2022-08-16T09:50:20;23.90;99.90
3226;DHT22;1625;49.884;8.666;2022-08-16T09:52:46;24.00;99.90
3226;DHT22;1625;49.884;8.666;2022-08-16T09:55:11;24.00;99.90
3226;DHT22;1625;49.884;8.666;2022-08-16T09:57:38;24.00;99.90
3226;DHT22;1625;49.884;8.666;2022-08-16T10:00:07;24.10;99.90
3226;DHT22;1625;49.884;8.666;2022-08-16T10:02:34;24.10;99.90
3226;DHT22;1625;49.884;8.666;2022-08-16T10:05:00;24.10;99.90
3226;DHT22;1625;49.884;8.666;2022-08-16T10:07:28;24.20;99.90
3226;DHT22;1625;49.884;8.666;2022-08-16T10:09:54;24.20;99.90
3226;DHT22;1625;49.884;8.666;2022-08-16T10:12:20;24.20;99.90
3226;DHT22;1625;49.884;8.666;2022-08-16T10:15:04;24.20;99.90
3226;DHT22;1625;49.884;8.666;2022-08-16T10:17:33;24.30;99.90
3226;DHT22;1625;49.884;8.666;2022-08-16T10:19:59;24.30;99.90
3226;DHT22;1625;49.884;8.666;2022-08-16T10:22:25;24.40;99.90
3226;DHT22;1625;49.884;8.666;2022-08-16T10:24:51;24.50;99.90
3226;DHT22;1625;49.884;8.666;2022-08-16T10:27:17;24.50;99.90
3226;DHT22;1625;49.884;8.666;2022-08-16T10:29:42;24.50;99.90
3226;DHT22;1625;49.884;8.666;2022-08-16T10:32:08;24.40;99.90
3226;DHT22;1625;49.884;8.666;2022-08-16T10:34:34;24.40;99.90
3226;DHT22;1625;49.884;8.666;2022-08-16T10:37:00;24.50;99.90
3226;DHT22;1625;49.884;8.666;2022-08-16T10:39:27;24.50;99.90
3226;DHT22;1625;49.884;8.666;2022-08-16T10:41:52;24.60;99.90
3226;DHT22;1625;49.884;8.666;2022-08-16T10:44:18;24.60;99.90
3226;DHT22;1625;49.884;8.666;2022-08-16T10:46:44;24.70;99.90
3226;DHT22;1625;49.884;8.666;2022-08-16T10:49:10;24.70;99.90
3226;DHT22;1625;49.884;8.666;2022-08-16T10:51:36;24.80;99.90
3226;DHT22;1625;49.884;8.666;2022-08-16T10:54:04;24.80;99.90
3226;DHT22;1625;49.884;8.666;2022-08-16T10:56:31;24.90;99.90
3226;DHT22;1625;49.884;8.666;2022-08-16T10:58:56;24.90;99.90
3226;DHT22;1625;49.884;8.666;2022-08-16T11:01:23;24.90;99.90
3226;DHT22;1625;49.884;8.666;2022-08-16T11:03:51;25.00;99.90
3226;DHT22;1625;49.884;8.666;2022-08-16T11:06:17;25.10;99.90
3226;DHT22;1625;49.884;8.666;2022-08-16T11:08:42;25.20;99.90
3226;DHT22;1625;49.884;8.666;2022-08-16T11:11:08;25.20;99.90
3226;DHT22;1625;49.884;8.666;2022-08-16T11:13:36;25.20;99.90
3226;DHT22;1625;49.884;8.666;2022-08-16T11:16:03;25.30;99.90
3226;DHT22;1625;49.884;8.666;2022-08-16T11:18:29;25.40;99.90
3226;DHT22;1625;49.884;8.666;2022-08-16T11:20:56;25.40;99.90
3226;DHT22;1625;49.884;8.666;2022-08-16T11:23:22;25.40;99.90
3226;DHT22;1625;49.884;8.666;2022-08-16T11:25:48;25.50;99.90
3226;DHT22;1625;49.884;8.666;2022-08-16T11:28:13;25.50;99.90
3226;DHT22;1625;49.884;8.666;2022-08-16T11:30:39;25.50;99.90
3226;DHT22;1625;49.884;8.666;2022-08-16T11:33:07;25.50;99.90
3226;DHT22;1625;49.884;8.666;2022-08-16T11:35:33;25.50;99.90
3226;DHT22;1625;49.884;8.666;2022-08-16T11:38:03;25.40;99.90
3226;DHT22;1625;49.884;8.666;2022-08-16T11:40:37;25.50;99.90
3226;DHT22;1625;49.884;8.666;2022-08-16T11:43:04;25.50;99.90
3226;DHT22;1625;49.884;8.666;2022-08-16T11:45:33;25.50;99.90
3226;DHT22;1625;49.884;8.666;2022-08-16T11:47:59;25.40;99.90
3226;DHT22;1625;49.884;8.666;2022-08-16T11:50:25;25.30;99.90
3226;DHT22;1625;49.884;8.666;2022-08-16T11:52:50;25.20;99.90
3226;DHT22;1625;49.884;8.666;2022-08-16T11:55:18;25.20;99.90
3226;DHT22;1625;49.884;8.666;2022-08-16T11:57:43;25.20;99.90
3226;DHT22;1625;49.884;8.666;2022-08-16T12:00:13;25.20;99.90
3226;DHT22;1625;49.884;8.666;2022-08-16T12:02:39;25.40;99.90
3226;DHT22;1625;49.884;8.666;2022-08-16T12:05:07;25.70;99.90
3226;DHT22;1625;49.884;8.666;2022-08-16T12:07:33;25.60;99.90
3226;DHT22;1625;49.884;8.666;2022-08-16T12:10:00;25.60;99.90
3226;DHT22;1625;49.884;8.666;2022-08-16T12:12:26;25.80;99.90
3226;DHT22;1625;49.884;8.666;2022-08-16T12:14:52;26.00;99.90
3226;DHT22;1625;49.884;8.666;2022-08-16T12:17:17;26.30;99.90
3226;DHT22;1625;49.884;8.666;2022-08-16T12:19:43;26.40;99.90
3226;DHT22;1625;49.884;8.666;2022-08-16T12:22:10;26.70;99.90
3226;DHT22;1625;49.884;8.666;2022-08-16T12:24:35;26.80;99.90
3226;DHT22;1625;49.884;8.666;2022-08-16T12:27:01;26.90;99.90
3226;DHT22;1625;49.884;8.666;2022-08-16T12:29:27;26.90;99.90
3226;DHT22;1625;49.884;8.666;2022-08-16T12:31:52;26.80;99.90
3226;DHT22;1625;49.884;8.666;2022-08-16T12:34:18;26.70;99.90
3226;DHT22;1625;49.884;8.666;2022-08-16T12:36:44;26.80;99.90
3226;DHT22;1625;49.884;8.666;2022-08-16T12:39:11;26.80;99.90
3226;DHT22;1625;49.884;8.666;2022-08-16T12:41:37;26.90;99.90
3226;DHT22;1625;49.884;8.666;2022-08-16T12:44:05;26.70;99.90
3226;DHT22;1625;49.884;8.666;2022-08-16T12:46:34;26.70;99.90
3226;DHT22;1625;49.884;8.666;2022-08-16T12:49:01;26.80;99.90
3226;DHT22;1625;49.884;8.666;2022-08-16T12:51:36;27.10;99.90
3226;DHT22;1625;49.884;8.666;2022-08-16T12:54:05;27.20;99.90
3226;DHT22;1625;49.884;8.666;2022-08-16T12:56:33;27.40;99.90
3226;DHT22;1625;49.884;8.666;2022-08-16T12:59:02;27.50;99.90
3226;DHT22;1625;49.884;8.666;2022-08-16T13:01:31;27.60;99.90
3226;DHT22;1625;49.884;8.666;2022-08-16T13:03:59;27.60;99.90
3226;DHT22;1625;49.884;8.666;2022-08-16T13:06:27;27.60;99.90
3226;DHT22;1625;49.884;8.666;2022-08-16T13:08:54;27.60;99.90
3226;DHT22;1625;49.884;8.666;2022-08-16T13:11:38;27.90;99.90
3226;DHT22;1625;49.884;8.666;2022-08-16T13:14:10;28.00;99.90
3226;DHT22;1625;49.884;8.666;2022-08-16T13:16:35;28.00;99.90
3226;DHT22;1625;49.884;8.666;2022-08-16T13:19:02;27.90;99.90
3226;DHT22;1625;49.884;8.666;2022-08-16T13:21:28;27.70;99.90
3226;DHT22;1625;49.884;8.666;2022-08-16T13:23:53;27.60;99.90
3226;DHT22;1625;49.884;8.666;2022-08-16T13:26:19;27.60;99.90
3226;DHT22;1625;49.884;8.666;2022-08-16T13:28:44;27.70;99.90
3226;DHT22;1625;49.884;8.666;2022-08-16T13:31:10;28.00;99.90
3226;DHT22;1625;49.884;8.666;2022-08-16T13:33:36;28.10;99.90
3226;DHT22;1625;49.884;8.666;2022-08-16T13:36:04;28.10;99.90
3226;DHT22;1625;49.884;8.666;2022-08-16T13:38:32;28.20;99.90
3226;DHT22;1625;49.884;8.666;2022-08-16T13:40:57;28.20;99.90
3226;DHT22;1625;49.884;8.666;2022-08-16T13:43:25;28.20;99.90
3226;DHT22;1625;49.884;8.666;2022-08-16T13:45:51;28.30;99.90
3226;DHT22;1625;49.884;8.666;2022-08-16T13:48:16;28.30;99.90
3226;DHT22;1625;49.884;8.666;2022-08-16T13:50:42;28.40;99.90
3226;DHT22;1625;49.884;8.666;2022-08-16T13:53:08;28.50;99.90
3226;DHT22;1625;49.884;8.666;2022-08-16T13:55:34;28.70;99.90
3226;DHT22;1625;49.884;8.666;2022-08-16T13:57:59;28.80;99.90
3226;DHT22;1625;49.884;8.666;2022-08-16T14:00:25;28.70;99.90
3226;DHT22;1625;49.884;8.666;2022-08-16T14:02:51;28.80;99.90
3226;DHT22;1625;49.884;8.666;2022-08-16T14:05:17;28.80;99.90
3226;DHT22;1625;49.884;8.666;2022-08-16T14:07:43;28.80;99.90
3226;DHT22;1625;49.884;8.666;2022-08-16T14:10:11;28.90;99.90
3226;DHT22;1625;49.884;8.666;2022-08-16T14:12:37;28.80;99.90
3226;DHT22;1625;49.884;8.666;2022-08-16T14:15:07;28.80;99.90
3226;DHT22;1625;49.884;8.666;2022-08-16T14:17:33;28.80;99.90
3226;DHT22;1625;49.884;8.666;2022-08-16T14:19:59;28.80;99.90
3226;DHT22;1625;49.884;8.666;2022-08-16T14:22:27;28.80;99.90
3226;DHT22;1625;49.884;8.666;2022-08-16T14:24:54;28.80;99.90
3226;DHT22;1625;49.884;8.666;2022-08-16T14:27:24;28.80;99.90
3226;DHT22;1625;49.884;8.666;2022-08-16T14:29:51;28.90;99.90
3226;DHT22;1625;49.884;8.666;2022-08-16T14:32:19;28.90;99.90
3226;DHT22;1625;49.884;8.666;2022-08-16T14:34:44;29.10;99.90
3226;DHT22;1625;49.884;8.666;2022-08-16T14:37:10;29.30;99.90
3226;DHT22;1625;49.884;8.666;2022-08-16T14:39:36;29.70;99.90
3226;DHT22;1625;49.884;8.666;2022-08-16T14:42:10;29.60;99.90
3226;DHT22;1625;49.884;8.666;2022-08-16T14:44:36;29.60;98.50
3226;DHT22;1625;49.884;8.666;2022-08-16T14:47:03;29.60;98.30
3226;DHT22;1625;49.884;8.666;2022-08-16T14:49:31;29.80;97.00
3226;DHT22;1625;49.884;8.666;2022-08-16T14:52:05;29.90;97.70
3226;DHT22;1625;49.884;8.666;2022-08-16T14:54:32;30.00;97.70
3226;DHT22;1625;49.884;8.666;2022-08-16T14:56:57;30.20;97.60
3226;DHT22;1625;49.884;8.666;2022-08-16T14:59:23;30.50;97.70
3226;DHT22;1625;49.884;8.666;2022-08-16T15:01:50;30.70;96.30
3226;DHT22;1625;49.884;8.666;2022-08-16T15:04:16;31.60;95.60
3226;DHT22;1625;49.884;8.666;2022-08-16T15:06:42;32.50;94.50
3226;DHT22;1625;49.884;8.666;2022-08-16T15:09:07;32.70;93.40
3226;DHT22;1625;49.884;8.666;2022-08-16T15:11:33;34.00;92.20
3226;DHT22;1625;49.884;8.666;2022-08-16T15:13:59;36.40;90.20
3226;DHT22;1625;49.884;8.666;2022-08-16T15:16:25;40.80;77.90
3226;DHT22;1625;49.884;8.666;2022-08-16T15:18:51;44.70;63.30
3226;DHT22;1625;49.884;8.666;2022-08-16T15:21:16;47.60;55.70
3226;DHT22;1625;49.884;8.666;2022-08-16T15:23:42;49.10;50.60
3226;DHT22;1625;49.884;8.666;2022-08-16T15:26:08;50.30;48.80
3226;DHT22;1625;49.884;8.666;2022-08-16T15:28:34;50.80;46.30
3226;DHT22;1625;49.884;8.666;2022-08-16T15:31:05;48.10;45.60
3226;DHT22;1625;49.884;8.666;2022-08-16T15:33:35;44.80;47.00
3226;DHT22;1625;49.884;8.666;2022-08-16T15:36:01;40.90;50.70
3226;DHT22;1625;49.884;8.666;2022-08-16T15:38:27;38.50;53.40
3226;DHT22;1625;49.884;8.666;2022-08-16T15:40:53;37.30;54.30
3226;DHT22;1625;49.884;8.666;2022-08-16T15:43:19;35.80;56.00
3226;DHT22;1625;49.884;8.666;2022-08-16T15:45:45;34.70;58.30
3226;DHT22;1625;49.884;8.666;2022-08-16T15:48:29;33.90;59.90
3226;DHT22;1625;49.884;8.666;2022-08-16T15:51:02;33.70;61.90
3226;DHT22;1625;49.884;8.666;2022-08-16T15:53:28;34.20;61.40
3226;DHT22;1625;49.884;8.666;2022-08-16T15:55:56;33.60;61.00
3226;DHT22;1625;49.884;8.666;2022-08-16T15:58:23;32.90;62.30
3226;DHT22;1625;49.884;8.666;2022-08-16T16:00:48;32.70;63.10
3226;DHT22;1625;49.884;8.666;2022-08-16T16:03:22;34.00;63.20
3226;DHT22;1625;49.884;8.666;2022-08-16T16:05:50;34.60;61.70